Rockville Centre, New York
Current Conditions -  °F | °C
As of 9:51 AM on Thursday 18 Dec 2014 (Local Time) from KJFK Reporting Station
Broken Clouds Broken Clouds  
Wind Chill: 32°   Ceiling: 4000
Heat Index: 41°   Visibility: 10mi
Dew Point: 22°   Wind: 17mph
Humidity: 47%   Direction: 310°NW
Pressure: 30"   Gusts: 31mph
Location:  40.66°N, 73.64°W
Report Text: KJFK 181451Z 31015G27KT 10SM BKN040 05/M06 A3000 RMK AO2 PK WND 31029/1410 SLP160 T00501056 53015
Loading
Personal Weather Stations






























Interactive Weather Map New forecast layout! Learn more

10-Day Weather Forecast

Advertisements
Track Severe Weather on mobile